sensor_id;sensor_type;location;lat;lon;timestamp;P1;durP1;ratioP1;P2;durP2;ratioP2
13685;SDS011;6915;48.296;8.874;2023-06-26T00:01:27;6.35;;;5.75;;
13685;SDS011;6915;48.296;8.874;2023-06-26T00:03:57;6.95;;;6.32;;
13685;SDS011;6915;48.296;8.874;2023-06-26T00:06:27;6.53;;;5.63;;
13685;SDS011;6915;48.296;8.874;2023-06-26T00:08:56;6.72;;;6.13;;
13685;SDS011;6915;48.296;8.874;2023-06-26T00:11:25;7.03;;;6.43;;
13685;SDS011;6915;48.296;8.874;2023-06-26T00:13:55;7.00;;;6.35;;
13685;SDS011;6915;48.296;8.874;2023-06-26T00:16:25;6.78;;;6.15;;
13685;SDS011;6915;48.296;8.874;2023-06-26T00:18:57;8.85;;;6.97;;
13685;SDS011;6915;48.296;8.874;2023-06-26T00:21:26;6.72;;;6.10;;
13685;SDS011;6915;48.296;8.874;2023-06-26T00:23:54;6.90;;;6.30;;
13685;SDS011;6915;48.296;8.874;2023-06-26T00:26:23;6.25;;;5.70;;
13685;SDS011;6915;48.296;8.874;2023-06-26T00:28:51;6.60;;;6.00;;
13685;SDS011;6915;48.296;8.874;2023-06-26T00:31:20;6.50;;;6.00;;
13685;SDS011;6915;48.296;8.874;2023-06-26T00:33:49;7.28;;;6.18;;
13685;SDS011;6915;48.296;8.874;2023-06-26T00:36:19;7.10;;;6.40;;
13685;SDS011;6915;48.296;8.874;2023-06-26T00:38:48;6.57;;;5.97;;
13685;SDS011;6915;48.296;8.874;2023-06-26T00:41:17;6.68;;;6.00;;
13685;SDS011;6915;48.296;8.874;2023-06-26T00:43:46;6.63;;;6.03;;
13685;SDS011;6915;48.296;8.874;2023-06-26T00:46:14;6.47;;;5.88;;
13685;SDS011;6915;48.296;8.874;2023-06-26T00:48:44;7.05;;;6.35;;
13685;SDS011;6915;48.296;8.874;2023-06-26T00:51:14;6.82;;;6.22;;
13685;SDS011;6915;48.296;8.874;2023-06-26T00:53:45;7.10;;;6.43;;
13685;SDS011;6915;48.296;8.874;2023-06-26T00:56:13;6.97;;;6.25;;
13685;SDS011;6915;48.296;8.874;2023-06-26T00:58:43;7.97;;;6.38;;
13685;SDS011;6915;48.296;8.874;2023-06-26T01:01:12;6.47;;;5.88;;
13685;SDS011;6915;48.296;8.874;2023-06-26T01:03:42;7.25;;;6.60;;
13685;SDS011;6915;48.296;8.874;2023-06-26T01:06:16;6.78;;;6.18;;
13685;SDS011;6915;48.296;8.874;2023-06-26T01:08:48;6.88;;;5.90;;
13685;SDS011;6915;48.296;8.874;2023-06-26T01:11:17;7.43;;;6.63;;
13685;SDS011;6915;48.296;8.874;2023-06-26T01:13:46;6.65;;;6.07;;
13685;SDS011;6915;48.296;8.874;2023-06-26T01:16:15;6.80;;;6.20;;
13685;SDS011;6915;48.296;8.874;2023-06-26T01:18:45;8.85;;;7.07;;
13685;SDS011;6915;48.296;8.874;2023-06-26T01:21:15;6.88;;;6.28;;
13685;SDS011;6915;48.296;8.874;2023-06-26T01:23:54;6.68;;;6.13;;
13685;SDS011;6915;48.296;8.874;2023-06-26T01:26:27;6.93;;;6.22;;
13685;SDS011;6915;48.296;8.874;2023-06-26T01:29:00;7.30;;;6.60;;
13685;SDS011;6915;48.296;8.874;2023-06-26T01:31:30;7.15;;;6.50;;
13685;SDS011;6915;48.296;8.874;2023-06-26T01:33:59;7.25;;;6.55;;
13685;SDS011;6915;48.296;8.874;2023-06-26T01:36:28;6.95;;;6.28;;
13685;SDS011;6915;48.296;8.874;2023-06-26T01:38:57;6.93;;;6.32;;
13685;SDS011;6915;48.296;8.874;2023-06-26T01:41:27;7.45;;;6.80;;
13685;SDS011;6915;48.296;8.874;2023-06-26T01:43:59;7.40;;;6.70;;
13685;SDS011;6915;48.296;8.874;2023-06-26T01:46:35;7.28;;;6.60;;
13685;SDS011;6915;48.296;8.874;2023-06-26T01:49:07;7.45;;;6.68;;
13685;SDS011;6915;48.296;8.874;2023-06-26T01:51:42;6.50;;;5.97;;
13685;SDS011;6915;48.296;8.874;2023-06-26T01:54:18;7.10;;;6.40;;
13685;SDS011;6915;48.296;8.874;2023-06-26T01:56:50;7.38;;;6.68;;
13685;SDS011;6915;48.296;8.874;2023-06-26T01:59:20;7.20;;;6.50;;
13685;SDS011;6915;48.296;8.874;2023-06-26T02:01:52;7.35;;;6.65;;
13685;SDS011;6915;48.296;8.874;2023-06-26T02:04:20;7.22;;;6.53;;
13685;SDS011;6915;48.296;8.874;2023-06-26T02:06:49;7.68;;;6.85;;
13685;SDS011;6915;48.296;8.874;2023-06-26T02:09:17;6.93;;;6.32;;
13685;SDS011;6915;48.296;8.874;2023-06-26T02:11:46;7.75;;;6.47;;
13685;SDS011;6915;48.296;8.874;2023-06-26T02:14:16;7.00;;;6.38;;
13685;SDS011;6915;48.296;8.874;2023-06-26T02:16:44;6.90;;;6.30;;
13685;SDS011;6915;48.296;8.874;2023-06-26T02:19:13;7.40;;;6.72;;
13685;SDS011;6915;48.296;8.874;2023-06-26T02:21:46;7.43;;;6.72;;
13685;SDS011;6915;48.296;8.874;2023-06-26T02:24:15;7.53;;;6.82;;
13685;SDS011;6915;48.296;8.874;2023-06-26T02:26:44;7.20;;;6.50;;
13685;SDS011;6915;48.296;8.874;2023-06-26T02:29:15;7.03;;;6.32;;
13685;SDS011;6915;48.296;8.874;2023-06-26T02:31:44;7.35;;;6.65;;
13685;SDS011;6915;48.296;8.874;2023-06-26T02:34:14;7.53;;;6.82;;
13685;SDS011;6915;48.296;8.874;2023-06-26T02:36:42;7.18;;;6.40;;
13685;SDS011;6915;48.296;8.874;2023-06-26T02:39:12;6.97;;;6.38;;
13685;SDS011;6915;48.296;8.874;2023-06-26T02:41:41;7.18;;;6.50;;
13685;SDS011;6915;48.296;8.874;2023-06-26T02:44:09;6.95;;;6.35;;
13685;SDS011;6915;48.296;8.874;2023-06-26T02:46:40;8.00;;;6.50;;
13685;SDS011;6915;48.296;8.874;2023-06-26T02:49:09;7.05;;;6.45;;
13685;SDS011;6915;48.296;8.874;2023-06-26T02:51:37;8.68;;;6.63;;
13685;SDS011;6915;48.296;8.874;2023-06-26T02:54:06;7.45;;;6.60;;
13685;SDS011;6915;48.296;8.874;2023-06-26T02:56:35;7.20;;;6.50;;
13685;SDS011;6915;48.296;8.874;2023-06-26T02:59:03;7.95;;;6.88;;
13685;SDS011;6915;48.296;8.874;2023-06-26T03:01:32;7.97;;;6.70;;
13685;SDS011;6915;48.296;8.874;2023-06-26T03:04:02;7.05;;;6.45;;
13685;SDS011;6915;48.296;8.874;2023-06-26T03:06:31;7.80;;;7.10;;
13685;SDS011;6915;48.296;8.874;2023-06-26T03:09:00;8.00;;;7.20;;
13685;SDS011;6915;48.296;8.874;2023-06-26T03:11:28;7.97;;;7.18;;
13685;SDS011;6915;48.296;8.874;2023-06-26T03:13:57;7.67;;;6.97;;
13685;SDS011;6915;48.296;8.874;2023-06-26T03:16:25;7.63;;;6.93;;
13685;SDS011;6915;48.296;8.874;2023-06-26T03:18:54;7.18;;;6.53;;
13685;SDS011;6915;48.296;8.874;2023-06-26T03:21:24;7.40;;;6.75;;
13685;SDS011;6915;48.296;8.874;2023-06-26T03:23:53;7.13;;;6.40;;
13685;SDS011;6915;48.296;8.874;2023-06-26T03:26:21;6.78;;;6.18;;
13685;SDS011;6915;48.296;8.874;2023-06-26T03:28:53;7.40;;;6.70;;
13685;SDS011;6915;48.296;8.874;2023-06-26T03:31:21;7.35;;;6.57;;
13685;SDS011;6915;48.296;8.874;2023-06-26T03:33:50;7.50;;;6.67;;
13685;SDS011;6915;48.296;8.874;2023-06-26T03:36:20;7.35;;;6.65;;
13685;SDS011;6915;48.296;8.874;2023-06-26T03:39:05;7.45;;;6.75;;
13685;SDS011;6915;48.296;8.874;2023-06-26T04:17:32;7.35;;;6.20;;
13685;SDS011;6915;48.296;8.874;2023-06-26T04:20:01;6.85;;;6.25;;
13685;SDS011;6915;48.296;8.874;2023-06-26T04:22:31;6.97;;;6.07;;
13685;SDS011;6915;48.296;8.874;2023-06-26T04:25:01;6.75;;;6.10;;
13685;SDS011;6915;48.296;8.874;2023-06-26T04:27:30;7.18;;;6.18;;
13685;SDS011;6915;48.296;8.874;2023-06-26T04:29:59;6.50;;;5.90;;
13685;SDS011;6915;48.296;8.874;2023-06-26T04:32:28;6.82;;;6.03;;
13685;SDS011;6915;48.296;8.874;2023-06-26T04:34:58;6.88;;;6.28;;
13685;SDS011;6915;48.296;8.874;2023-06-26T04:37:28;7.00;;;6.30;;
13685;SDS011;6915;48.296;8.874;2023-06-26T04:39:56;7.50;;;6.10;;
13685;SDS011;6915;48.296;8.874;2023-06-26T04:42:25;6.20;;;5.70;;
13685;SDS011;6915;48.296;8.874;2023-06-26T04:44:54;7.03;;;6.35;;
13685;SDS011;6915;48.296;8.874;2023-06-26T04:47:23;6.20;;;5.70;;
13685;SDS011;6915;48.296;8.874;2023-06-26T04:49:51;7.15;;;6.45;;
13685;SDS011;6915;48.296;8.874;2023-06-26T04:52:22;8.60;;;6.30;;
13685;SDS011;6915;48.296;8.874;2023-06-26T04:54:51;6.75;;;5.80;;
13685;SDS011;6915;48.296;8.874;2023-06-26T04:57:19;6.90;;;6.30;;
13685;SDS011;6915;48.296;8.874;2023-06-26T04:59:48;6.53;;;5.93;;
13685;SDS011;6915;48.296;8.874;2023-06-26T05:02:17;7.22;;;6.10;;
13685;SDS011;6915;48.296;8.874;2023-06-26T05:04:46;6.35;;;5.85;;
13685;SDS011;6915;48.296;8.874;2023-06-26T05:07:14;6.28;;;5.75;;
13685;SDS011;6915;48.296;8.874;2023-06-26T05:09:44;6.55;;;5.95;;
13685;SDS011;6915;48.296;8.874;2023-06-26T05:12:16;6.15;;;5.55;;
13685;SDS011;6915;48.296;8.874;2023-06-26T05:14:44;6.43;;;5.85;;
13685;SDS011;6915;48.296;8.874;2023-06-26T05:17:13;6.82;;;6.22;;
13685;SDS011;6915;48.296;8.874;2023-06-26T05:19:42;6.60;;;6.10;;
13685;SDS011;6915;48.296;8.874;2023-06-26T05:22:11;6.50;;;5.95;;
13685;SDS011;6915;48.296;8.874;2023-06-26T05:24:43;6.72;;;5.90;;
13685;SDS011;6915;48.296;8.874;2023-06-26T05:27:13;6.57;;;5.97;;
13685;SDS011;6915;48.296;8.874;2023-06-26T05:29:47;7.85;;;6.30;;
13685;SDS011;6915;48.296;8.874;2023-06-26T05:32:17;7.22;;;5.75;;
13685;SDS011;6915;48.296;8.874;2023-06-26T05:34:47;5.90;;;5.40;;
13685;SDS011;6915;48.296;8.874;2023-06-26T05:37:18;6.20;;;5.60;;
13685;SDS011;6915;48.296;8.874;2023-06-26T05:39:50;7.38;;;6.00;;
13685;SDS011;6915;48.296;8.874;2023-06-26T05:42:20;6.40;;;5.80;;
13685;SDS011;6915;48.296;8.874;2023-06-26T05:44:49;6.10;;;5.60;;
13685;SDS011;6915;48.296;8.874;2023-06-26T05:47:20;6.47;;;5.90;;
13685;SDS011;6915;48.296;8.874;2023-06-26T05:49:51;5.93;;;5.43;;
13685;SDS011;6915;48.296;8.874;2023-06-26T05:52:24;5.65;;;5.15;;
13685;SDS011;6915;48.296;8.874;2023-06-26T05:54:59;6.10;;;5.60;;
13685;SDS011;6915;48.296;8.874;2023-06-26T05:57:27;5.78;;;5.28;;
13685;SDS011;6915;48.296;8.874;2023-06-26T05:59:57;5.80;;;5.30;;
13685;SDS011;6915;48.296;8.874;2023-06-26T06:02:30;5.82;;;5.32;;
13685;SDS011;6915;48.296;8.874;2023-06-26T06:05:01;6.07;;;5.47;;
13685;SDS011;6915;48.296;8.874;2023-06-26T06:07:31;6.25;;;5.25;;
13685;SDS011;6915;48.296;8.874;2023-06-26T06:10:02;5.80;;;5.30;;
13685;SDS011;6915;48.296;8.874;2023-06-26T06:12:33;6.00;;;5.13;;
13685;SDS011;6915;48.296;8.874;2023-06-26T06:15:01;6.82;;;6.22;;
13685;SDS011;6915;48.296;8.874;2023-06-26T06:17:30;5.93;;;5.43;;
13685;SDS011;6915;48.296;8.874;2023-06-26T06:19:59;6.88;;;6.20;;
13685;SDS011;6915;48.296;8.874;2023-06-26T06:22:29;6.53;;;5.90;;
13685;SDS011;6915;48.296;8.874;2023-06-26T06:24:58;7.25;;;6.00;;
13685;SDS011;6915;48.296;8.874;2023-06-26T06:27:28;6.15;;;5.55;;
13685;SDS011;6915;48.296;8.874;2023-06-26T06:29:57;5.82;;;5.32;;
13685;SDS011;6915;48.296;8.874;2023-06-26T06:32:26;5.32;;;4.93;;
13685;SDS011;6915;48.296;8.874;2023-06-26T06:34:55;5.90;;;5.07;;
13685;SDS011;6915;48.296;8.874;2023-06-26T06:37:24;5.55;;;5.13;;
13685;SDS011;6915;48.296;8.874;2023-06-26T06:39:54;5.43;;;5.03;;
13685;SDS011;6915;48.296;8.874;2023-06-26T06:42:24;5.88;;;5.30;;
13685;SDS011;6915;48.296;8.874;2023-06-26T06:44:55;5.78;;;4.90;;
13685;SDS011;6915;48.296;8.874;2023-06-26T06:47:23;4.90;;;4.57;;
13685;SDS011;6915;48.296;8.874;2023-06-26T06:49:52;6.22;;;4.82;;
13685;SDS011;6915;48.296;8.874;2023-06-26T06:52:21;5.07;;;4.68;;
13685;SDS011;6915;48.296;8.874;2023-06-26T06:54:51;5.57;;;4.90;;
13685;SDS011;6915;48.296;8.874;2023-06-26T06:57:23;4.90;;;4.50;;
13685;SDS011;6915;48.296;8.874;2023-06-26T06:59:52;5.10;;;4.70;;
13685;SDS011;6915;48.296;8.874;2023-06-26T07:02:21;5.13;;;4.72;;
13685;SDS011;6915;48.296;8.874;2023-06-26T07:04:50;5.03;;;4.57;;
13685;SDS011;6915;48.296;8.874;2023-06-26T07:07:19;5.32;;;4.93;;
13685;SDS011;6915;48.296;8.874;2023-06-26T07:09:48;5.43;;;4.93;;
13685;SDS011;6915;48.296;8.874;2023-06-26T07:12:17;5.00;;;4.60;;
13685;SDS011;6915;48.296;8.874;2023-06-26T07:14:46;5.07;;;4.68;;
13685;SDS011;6915;48.296;8.874;2023-06-26T07:17:17;5.50;;;4.90;;
13685;SDS011;6915;48.296;8.874;2023-06-26T07:19:46;5.45;;;5.05;;
13685;SDS011;6915;48.296;8.874;2023-06-26T07:22:16;5.43;;;5.00;;
13685;SDS011;6915;48.296;8.874;2023-06-26T07:24:45;6.25;;;5.30;;
13685;SDS011;6915;48.296;8.874;2023-06-26T07:27:16;5.60;;;5.10;;
13685;SDS011;6915;48.296;8.874;2023-06-26T07:29:45;5.20;;;4.80;;
13685;SDS011;6915;48.296;8.874;2023-06-26T07:32:14;5.00;;;4.60;;
13685;SDS011;6915;48.296;8.874;2023-06-26T07:34:44;5.38;;;4.88;;
13685;SDS011;6915;48.296;8.874;2023-06-26T07:37:13;5.28;;;4.88;;
13685;SDS011;6915;48.296;8.874;2023-06-26T07:39:42;5.90;;;5.32;;
13685;SDS011;6915;48.296;8.874;2023-06-26T07:42:11;6.93;;;4.85;;
13685;SDS011;6915;48.296;8.874;2023-06-26T07:44:41;5.20;;;4.78;;
13685;SDS011;6915;48.296;8.874;2023-06-26T07:47:10;8.05;;;5.22;;
13685;SDS011;6915;48.296;8.874;2023-06-26T07:49:39;5.30;;;4.90;;
13685;SDS011;6915;48.296;8.874;2023-06-26T07:52:10;5.15;;;4.78;;
13685;SDS011;6915;48.296;8.874;2023-06-26T07:54:40;5.85;;;4.60;;
13685;SDS011;6915;48.296;8.874;2023-06-26T07:57:09;4.82;;;4.43;;
13685;SDS011;6915;48.296;8.874;2023-06-26T07:59:38;4.72;;;4.32;;
13685;SDS011;6915;48.296;8.874;2023-06-26T08:02:07;5.53;;;5.13;;
13685;SDS011;6915;48.296;8.874;2023-06-26T08:04:36;7.28;;;4.78;;
13685;SDS011;6915;48.296;8.874;2023-06-26T08:07:05;5.97;;;4.80;;
13685;SDS011;6915;48.296;8.874;2023-06-26T08:09:36;6.45;;;5.22;;
13685;SDS011;6915;48.296;8.874;2023-06-26T08:12:05;6.00;;;4.85;;
13685;SDS011;6915;48.296;8.874;2023-06-26T08:14:35;5.40;;;4.90;;
13685;SDS011;6915;48.296;8.874;2023-06-26T08:17:04;5.32;;;4.82;;
13685;SDS011;6915;48.296;8.874;2023-06-26T08:19:33;5.68;;;5.15;;
13685;SDS011;6915;48.296;8.874;2023-06-26T08:22:02;4.80;;;4.40;;
13685;SDS011;6915;48.296;8.874;2023-06-26T08:24:31;6.70;;;5.28;;
13685;SDS011;6915;48.296;8.874;2023-06-26T08:27:03;5.00;;;4.70;;
13685;SDS011;6915;48.296;8.874;2023-06-26T08:29:33;5.18;;;4.70;;
13685;SDS011;6915;48.296;8.874;2023-06-26T08:32:02;5.50;;;4.90;;
13685;SDS011;6915;48.296;8.874;2023-06-26T08:34:32;5.68;;;4.82;;
13685;SDS011;6915;48.296;8.874;2023-06-26T08:37:01;4.75;;;4.45;;
13685;SDS011;6915;48.296;8.874;2023-06-26T08:39:30;5.20;;;4.57;;
13685;SDS011;6915;48.296;8.874;2023-06-26T08:41:58;6.10;;;5.20;;
13685;SDS011;6915;48.296;8.874;2023-06-26T08:44:29;7.88;;;4.85;;
13685;SDS011;6915;48.296;8.874;2023-06-26T08:46:59;4.93;;;4.50;;
13685;SDS011;6915;48.296;8.874;2023-06-26T08:49:29;5.30;;;4.70;;
13685;SDS011;6915;48.296;8.874;2023-06-26T08:52:06;5.15;;;4.75;;
13685;SDS011;6915;48.296;8.874;2023-06-26T08:54:39;5.15;;;4.70;;
13685;SDS011;6915;48.296;8.874;2023-06-26T08:57:11;6.00;;;4.90;;
13685;SDS011;6915;48.296;8.874;2023-06-26T08:59:44;5.55;;;4.90;;
13685;SDS011;6915;48.296;8.874;2023-06-26T09:02:12;5.18;;;4.68;;
13685;SDS011;6915;48.296;8.874;2023-06-26T09:04:41;4.95;;;4.55;;
13685;SDS011;6915;48.296;8.874;2023-06-26T09:07:10;7.18;;;4.78;;
13685;SDS011;6915;48.296;8.874;2023-06-26T09:09:39;6.05;;;4.55;;
13685;SDS011;6915;48.296;8.874;2023-06-26T09:12:09;5.00;;;4.57;;
13685;SDS011;6915;48.296;8.874;2023-06-26T09:14:39;5.78;;;5.22;;
13685;SDS011;6915;48.296;8.874;2023-06-26T09:17:11;4.72;;;4.38;;
13685;SDS011;6915;48.296;8.874;2023-06-26T09:19:41;4.60;;;4.20;;
13685;SDS011;6915;48.296;8.874;2023-06-26T09:22:16;5.00;;;4.50;;
13685;SDS011;6915;48.296;8.874;2023-06-26T09:24:45;5.07;;;4.78;;
13685;SDS011;6915;48.296;8.874;2023-06-26T09:27:15;5.80;;;4.53;;
13685;SDS011;6915;48.296;8.874;2023-06-26T09:29:45;5.35;;;4.85;;
13685;SDS011;6915;48.296;8.874;2023-06-26T09:32:16;5.32;;;4.82;;
13685;SDS011;6915;48.296;8.874;2023-06-26T09:34:45;5.18;;;4.78;;
13685;SDS011;6915;48.296;8.874;2023-06-26T09:37:16;5.70;;;5.20;;
13685;SDS011;6915;48.296;8.874;2023-06-26T09:39:47;6.20;;;5.30;;
13685;SDS011;6915;48.296;8.874;2023-06-26T09:42:16;6.13;;;5.13;;
13685;SDS011;6915;48.296;8.874;2023-06-26T09:44:49;5.40;;;4.97;;
13685;SDS011;6915;48.296;8.874;2023-06-26T09:47:20;5.53;;;5.03;;
13685;SDS011;6915;48.296;8.874;2023-06-26T09:49:50;5.45;;;5.05;;
13685;SDS011;6915;48.296;8.874;2023-06-26T09:52:20;5.40;;;4.90;;
13685;SDS011;6915;48.296;8.874;2023-06-26T09:54:52;5.45;;;4.75;;
13685;SDS011;6915;48.296;8.874;2023-06-26T09:57:34;6.55;;;4.80;;
13685;SDS011;6915;48.296;8.874;2023-06-26T10:00:04;5.10;;;4.80;;
13685;SDS011;6915;48.296;8.874;2023-06-26T10:02:35;5.10;;;4.80;;
13685;SDS011;6915;48.296;8.874;2023-06-26T10:05:04;5.50;;;5.10;;
13685;SDS011;6915;48.296;8.874;2023-06-26T10:07:32;6.15;;;5.32;;
13685;SDS011;6915;48.296;8.874;2023-06-26T10:10:04;5.18;;;4.78;;
13685;SDS011;6915;48.296;8.874;2023-06-26T10:12:41;5.75;;;5.32;;
13685;SDS011;6915;48.296;8.874;2023-06-26T10:15:22;7.18;;;5.40;;
13685;SDS011;6915;48.296;8.874;2023-06-26T10:17:55;6.07;;;5.57;;
13685;SDS011;6915;48.296;8.874;2023-06-26T10:20:25;5.97;;;5.38;;
13685;SDS011;6915;48.296;8.874;2023-06-26T10:23:00;5.72;;;5.28;;
13685;SDS011;6915;48.296;8.874;2023-06-26T10:25:34;6.15;;;5.65;;
13685;SDS011;6915;48.296;8.874;2023-06-26T10:28:07;6.00;;;5.50;;
13685;SDS011;6915;48.296;8.874;2023-06-26T10:30:38;8.63;;;5.55;;
13685;SDS011;6915;48.296;8.874;2023-06-26T10:33:10;6.05;;;5.30;;
13685;SDS011;6915;48.296;8.874;2023-06-26T10:35:42;6.22;;;5.72;;
13685;SDS011;6915;48.296;8.874;2023-06-26T10:38:11;6.15;;;5.47;;
13685;SDS011;6915;48.296;8.874;2023-06-26T10:40:41;7.13;;;5.40;;
13685;SDS011;6915;48.296;8.874;2023-06-26T10:43:11;6.20;;;5.75;;
13685;SDS011;6915;48.296;8.874;2023-06-26T10:45:44;6.47;;;5.97;;
13685;SDS011;6915;48.296;8.874;2023-06-26T10:48:18;6.45;;;5.65;;
13685;SDS011;6915;48.296;8.874;2023-06-26T10:50:48;6.43;;;5.82;;
13685;SDS011;6915;48.296;8.874;2023-06-26T10:53:23;5.97;;;5.47;;
13685;SDS011;6915;48.296;8.874;2023-06-26T10:56:00;6.55;;;5.88;;
13685;SDS011;6915;48.296;8.874;2023-06-26T10:58:30;6.20;;;5.70;;
13685;SDS011;6915;48.296;8.874;2023-06-26T11:01:19;6.53;;;5.93;;
13685;SDS011;6915;48.296;8.874;2023-06-26T11:03:59;6.28;;;5.63;;
13685;SDS011;6915;48.296;8.874;2023-06-26T11:06:30;8.35;;;6.15;;
13685;SDS011;6915;48.296;8.874;2023-06-26T11:09:06;6.10;;;5.60;;
13685;SDS011;6915;48.296;8.874;2023-06-26T11:11:55;6.40;;;6.00;;
13685;SDS011;6915;48.296;8.874;2023-06-26T11:14:30;6.82;;;6.30;;
13685;SDS011;6915;48.296;8.874;2023-06-26T11:17:02;6.30;;;5.70;;
13685;SDS011;6915;48.296;8.874;2023-06-26T11:19:33;6.18;;;5.68;;
13685;SDS011;6915;48.296;8.874;2023-06-26T11:22:03;7.43;;;6.32;;
13685;SDS011;6915;48.296;8.874;2023-06-26T11:24:32;6.70;;;5.95;;
13685;SDS011;6915;48.296;8.874;2023-06-26T11:27:02;6.53;;;6.03;;
13685;SDS011;6915;48.296;8.874;2023-06-26T11:29:32;6.32;;;5.82;;
13685;SDS011;6915;48.296;8.874;2023-06-26T11:32:03;6.40;;;5.80;;
13685;SDS011;6915;48.296;8.874;2023-06-26T11:34:33;6.40;;;5.80;;
13685;SDS011;6915;48.296;8.874;2023-06-26T11:37:04;6.60;;;6.00;;
13685;SDS011;6915;48.296;8.874;2023-06-26T11:39:33;6.75;;;6.13;;
13685;SDS011;6915;48.296;8.874;2023-06-26T11:42:04;7.03;;;5.93;;
13685;SDS011;6915;48.296;8.874;2023-06-26T11:44:33;6.80;;;6.25;;
13685;SDS011;6915;48.296;8.874;2023-06-26T11:47:12;6.97;;;6.00;;
13685;SDS011;6915;48.296;8.874;2023-06-26T11:49:43;6.32;;;5.65;;
13685;SDS011;6915;48.296;8.874;2023-06-26T11:52:14;6.93;;;6.25;;
13685;SDS011;6915;48.296;8.874;2023-06-26T11:54:44;6.88;;;6.28;;
13685;SDS011;6915;48.296;8.874;2023-06-26T11:57:14;6.47;;;5.80;;
13685;SDS011;6915;48.296;8.874;2023-06-26T11:59:44;6.25;;;5.75;;
13685;SDS011;6915;48.296;8.874;2023-06-26T12:02:16;6.30;;;5.70;;
13685;SDS011;6915;48.296;8.874;2023-06-26T12:04:49;6.10;;;5.60;;
13685;SDS011;6915;48.296;8.874;2023-06-26T12:07:18;6.30;;;5.80;;
13685;SDS011;6915;48.296;8.874;2023-06-26T12:09:48;6.30;;;5.72;;
13685;SDS011;6915;48.296;8.874;2023-06-26T12:12:18;12.10;;;6.10;;
13685;SDS011;6915;48.296;8.874;2023-06-26T12:14:48;7.55;;;6.00;;
13685;SDS011;6915;48.296;8.874;2023-06-26T12:17:17;6.50;;;5.90;;
13685;SDS011;6915;48.296;8.874;2023-06-26T12:19:50;6.28;;;5.72;;
13685;SDS011;6915;48.296;8.874;2023-06-26T12:22:20;6.63;;;6.13;;
13685;SDS011;6915;48.296;8.874;2023-06-26T12:24:49;7.35;;;6.10;;
13685;SDS011;6915;48.296;8.874;2023-06-26T12:27:23;7.70;;;6.10;;
13685;SDS011;6915;48.296;8.874;2023-06-26T12:29:52;6.65;;;5.90;;
13685;SDS011;6915;48.296;8.874;2023-06-26T12:32:22;7.00;;;6.38;;
13685;SDS011;6915;48.296;8.874;2023-06-26T12:34:53;6.85;;;6.25;;
13685;SDS011;6915;48.296;8.874;2023-06-26T12:37:25;8.25;;;6.25;;
13685;SDS011;6915;48.296;8.874;2023-06-26T12:39:54;7.20;;;6.32;;
13685;SDS011;6915;48.296;8.874;2023-06-26T12:42:24;7.35;;;6.65;;
13685;SDS011;6915;48.296;8.874;2023-06-26T12:44:54;9.57;;;6.70;;
13685;SDS011;6915;48.296;8.874;2023-06-26T12:47:24;6.70;;;6.10;;
13685;SDS011;6915;48.296;8.874;2023-06-26T12:49:57;7.20;;;6.60;;
13685;SDS011;6915;48.296;8.874;2023-06-26T12:52:31;7.53;;;6.90;;
13685;SDS011;6915;48.296;8.874;2023-06-26T12:55:00;9.27;;;6.80;;
13685;SDS011;6915;48.296;8.874;2023-06-26T12:57:29;7.85;;;7.13;;
13685;SDS011;6915;48.296;8.874;2023-06-26T12:59:59;10.88;;;6.97;;
13685;SDS011;6915;48.296;8.874;2023-06-26T13:02:28;7.35;;;6.75;;
13685;SDS011;6915;48.296;8.874;2023-06-26T13:04:59;8.57;;;6.72;;
13685;SDS011;6915;48.296;8.874;2023-06-26T13:07:29;7.68;;;7.07;;
13685;SDS011;6915;48.296;8.874;2023-06-26T13:09:58;7.78;;;6.97;;
13685;SDS011;6915;48.296;8.874;2023-06-26T13:12:27;8.82;;;6.60;;
13685;SDS011;6915;48.296;8.874;2023-06-26T13:14:58;7.65;;;6.97;;
13685;SDS011;6915;48.296;8.874;2023-06-26T13:17:27;7.20;;;6.50;;
13685;SDS011;6915;48.296;8.874;2023-06-26T13:19:56;7.50;;;6.80;;
13685;SDS011;6915;48.296;8.874;2023-06-26T13:22:25;7.50;;;6.88;;
13685;SDS011;6915;48.296;8.874;2023-06-26T13:24:54;6.90;;;6.20;;
13685;SDS011;6915;48.296;8.874;2023-06-26T13:27:23;7.22;;;6.60;;
13685;SDS011;6915;48.296;8.874;2023-06-26T13:29:52;7.38;;;6.68;;
13685;SDS011;6915;48.296;8.874;2023-06-26T13:32:21;8.13;;;6.47;;
13685;SDS011;6915;48.296;8.874;2023-06-26T13:34:50;8.43;;;6.63;;
13685;SDS011;6915;48.296;8.874;2023-06-26T13:37:21;7.43;;;6.35;;
13685;SDS011;6915;48.296;8.874;2023-06-26T13:39:50;7.65;;;7.05;;
13685;SDS011;6915;48.296;8.874;2023-06-26T13:42:19;8.57;;;6.88;;
13685;SDS011;6915;48.296;8.874;2023-06-26T13:44:48;8.85;;;6.70;;
13685;SDS011;6915;48.296;8.874;2023-06-26T13:47:17;12.40;;;6.65;;
13685;SDS011;6915;48.296;8.874;2023-06-26T13:49:47;7.45;;;6.63;;
13685;SDS011;6915;48.296;8.874;2023-06-26T13:52:16;7.13;;;6.53;;
13685;SDS011;6915;48.296;8.874;2023-06-26T13:54:47;7.30;;;6.70;;
13685;SDS011;6915;48.296;8.874;2023-06-26T13:57:17;6.95;;;6.38;;
13685;SDS011;6915;48.296;8.874;2023-06-26T13:59:47;7.05;;;6.35;;
13685;SDS011;6915;48.296;8.874;2023-06-26T14:02:16;8.80;;;7.20;;
13685;SDS011;6915;48.296;8.874;2023-06-26T14:04:45;6.90;;;6.30;;
13685;SDS011;6915;48.296;8.874;2023-06-26T14:07:14;6.70;;;6.18;;
13685;SDS011;6915;48.296;8.874;2023-06-26T14:09:44;6.80;;;6.30;;
13685;SDS011;6915;48.296;8.874;2023-06-26T14:12:13;9.48;;;6.68;;
13685;SDS011;6915;48.296;8.874;2023-06-26T14:14:42;7.80;;;6.65;;
13685;SDS011;6915;48.296;8.874;2023-06-26T14:17:11;10.05;;;6.55;;
13685;SDS011;6915;48.296;8.874;2023-06-26T14:19:41;7.22;;;6.55;;
13685;SDS011;6915;48.296;8.874;2023-06-26T14:22:11;6.78;;;6.18;;
13685;SDS011;6915;48.296;8.874;2023-06-26T14:24:40;7.15;;;6.30;;
13685;SDS011;6915;48.296;8.874;2023-06-26T14:27:11;8.48;;;6.47;;
13685;SDS011;6915;48.296;8.874;2023-06-26T14:29:40;7.22;;;6.25;;
13685;SDS011;6915;48.296;8.874;2023-06-26T14:32:10;6.88;;;6.20;;
13685;SDS011;6915;48.296;8.874;2023-06-26T14:34:40;7.50;;;6.28;;
13685;SDS011;6915;48.296;8.874;2023-06-26T14:37:09;7.53;;;6.35;;
13685;SDS011;6915;48.296;8.874;2023-06-26T14:39:38;6.72;;;6.13;;
13685;SDS011;6915;48.296;8.874;2023-06-26T14:42:07;6.60;;;5.97;;
13685;SDS011;6915;48.296;8.874;2023-06-26T14:44:37;7.00;;;6.32;;
13685;SDS011;6915;48.296;8.874;2023-06-26T14:47:06;8.82;;;6.38;;
13685;SDS011;6915;48.296;8.874;2023-06-26T14:49:38;6.90;;;6.20;;
13685;SDS011;6915;48.296;8.874;2023-06-26T14:52:07;10.25;;;6.30;;
13685;SDS011;6915;48.296;8.874;2023-06-26T14:54:36;6.43;;;5.72;;
13685;SDS011;6915;48.296;8.874;2023-06-26T14:57:06;8.77;;;6.38;;
13685;SDS011;6915;48.296;8.874;2023-06-26T14:59:37;8.02;;;5.80;;
13685;SDS011;6915;48.296;8.874;2023-06-26T15:02:06;6.35;;;5.78;;
13685;SDS011;6915;48.296;8.874;2023-06-26T15:04:35;6.40;;;5.68;;
13685;SDS011;6915;48.296;8.874;2023-06-26T15:07:05;6.20;;;5.70;;
13685;SDS011;6915;48.296;8.874;2023-06-26T15:09:34;5.97;;;5.47;;
13685;SDS011;6915;48.296;8.874;2023-06-26T15:12:04;6.10;;;5.60;;
13685;SDS011;6915;48.296;8.874;2023-06-26T15:14:33;5.90;;;5.43;;
13685;SDS011;6915;48.296;8.874;2023-06-26T15:17:03;6.47;;;5.88;;
13685;SDS011;6915;48.296;8.874;2023-06-26T15:19:33;6.60;;;5.78;;
13685;SDS011;6915;48.296;8.874;2023-06-26T15:22:03;5.72;;;5.22;;
13685;SDS011;6915;48.296;8.874;2023-06-26T15:24:32;5.72;;;5.30;;
13685;SDS011;6915;48.296;8.874;2023-06-26T15:27:01;6.20;;;5.63;;
13685;SDS011;6915;48.296;8.874;2023-06-26T15:29:30;9.48;;;5.60;;
13685;SDS011;6915;48.296;8.874;2023-06-26T15:31:59;6.20;;;5.60;;
13685;SDS011;6915;48.296;8.874;2023-06-26T15:34:30;6.63;;;5.30;;
13685;SDS011;6915;48.296;8.874;2023-06-26T15:36:59;5.70;;;5.20;;
13685;SDS011;6915;48.296;8.874;2023-06-26T15:39:29;5.18;;;4.70;;
13685;SDS011;6915;48.296;8.874;2023-06-26T15:41:59;5.28;;;4.88;;
13685;SDS011;6915;48.296;8.874;2023-06-26T15:44:29;5.20;;;4.70;;
13685;SDS011;6915;48.296;8.874;2023-06-26T15:46:59;8.52;;;4.78;;
13685;SDS011;6915;48.296;8.874;2023-06-26T15:49:29;7.32;;;4.70;;
13685;SDS011;6915;48.296;8.874;2023-06-26T15:52:00;5.82;;;4.95;;
13685;SDS011;6915;48.296;8.874;2023-06-26T15:54:29;5.30;;;4.80;;